createdAt,value
2017-12-08T00:01:37.216Z,100337.82
2017-12-08T00:04:08.957Z,100338.65
2017-12-08T00:06:40.948Z,100333.80
2017-12-08T00:09:13.655Z,100334.39
2017-12-08T00:11:47.745Z,100344.08
2017-12-08T00:14:20.124Z,100334.23
2017-12-08T00:16:53.948Z,100339.67
2017-12-08T00:19:26.217Z,100344.09
2017-12-08T00:21:59.113Z,100339.97
2017-12-08T00:24:30.752Z,100343.72
2017-12-08T00:27:02.368Z,100354.98
2017-12-08T00:29:34.183Z,100340.48
2017-12-08T00:32:08.443Z,100333.67
2017-12-08T00:34:40.870Z,100346.55
2017-12-08T00:37:12.527Z,100353.64
2017-12-08T00:39:43.265Z,100345.87
2017-12-08T00:42:13.504Z,100352.31
2017-12-08T00:44:44.429Z,100352.30
2017-12-08T00:47:15.884Z,100342.97
2017-12-08T00:49:46.835Z,100352.17
2017-12-08T00:52:17.737Z,100354.77
2017-12-08T00:54:49.393Z,100350.09
2017-12-08T00:57:21.074Z,100361.03
2017-12-08T00:59:51.468Z,100360.92
2017-12-08T01:02:23.458Z,100356.92
2017-12-08T01:04:56.091Z,100364.36
2017-12-08T01:07:27.453Z,100359.62
2017-12-08T01:09:58.099Z,100361.94
2017-12-08T01:12:28.505Z,100348.89
2017-12-08T01:14:58.882Z,100366.35
2017-12-08T01:17:30.031Z,100368.63
2017-12-08T01:20:00.376Z,100368.31
2017-12-08T01:22:30.914Z,100372.78
2017-12-08T01:25:03.208Z,100374.00
2017-12-08T01:27:33.961Z,100378.91
2017-12-08T01:30:07.225Z,100379.59
2017-12-08T01:32:38.089Z,100346.25
2017-12-08T01:35:09.360Z,100378.69
2017-12-08T01:37:40.832Z,100383.09
2017-12-08T01:40:12.011Z,100398.89
2017-12-08T01:42:42.388Z,100393.70
2017-12-08T01:45:15.384Z,100393.49
2017-12-08T01:47:45.686Z,100385.66
2017-12-08T01:50:16.505Z,100388.94
2017-12-08T01:52:47.050Z,100390.56
2017-12-08T01:55:17.594Z,100398.37
2017-12-08T01:57:49.179Z,100394.66
2017-12-08T02:00:22.665Z,100393.55
2017-12-08T02:02:53.612Z,100391.53
2017-12-08T02:05:25.036Z,100398.05
2017-12-08T02:07:56.131Z,100393.28
2017-12-08T02:10:26.697Z,100396.36
2017-12-08T02:12:57.688Z,100385.87
2017-12-08T02:15:28.442Z,100392.38
2017-12-08T02:17:59.193Z,100399.91
2017-12-08T02:20:30.400Z,100401.57
2017-12-08T02:23:01.714Z,100398.19
2017-12-08T02:25:33.451Z,100397.83
2017-12-08T02:28:04.372Z,100399.10
2017-12-08T02:30:35.063Z,100405.88
2017-12-08T02:33:05.602Z,100409.22
2017-12-08T02:35:36.039Z,100404.67
2017-12-08T02:38:06.372Z,100399.45
2017-12-08T02:40:36.834Z,100404.98
2017-12-08T02:43:07.186Z,100409.91
2017-12-08T02:45:39.786Z,100406.45
2017-12-08T02:48:10.252Z,100406.58
2017-12-08T02:50:40.564Z,100407.72
2017-12-08T02:53:10.962Z,100404.20
2017-12-08T02:55:41.184Z,100407.27
2017-12-08T02:58:11.506Z,100404.24
2017-12-08T03:00:42.568Z,100414.78
2017-12-08T03:03:12.909Z,100431.59
2017-12-08T03:05:43.606Z,100418.57
2017-12-08T03:08:16.951Z,100416.52
2017-12-08T03:10:47.290Z,100413.30
2017-12-08T03:13:17.527Z,100411.08
2017-12-08T03:15:47.883Z,100413.45
2017-12-08T03:18:19.075Z,100399.37
2017-12-08T03:20:57.460Z,100410.58
2017-12-08T03:23:28.455Z,100402.40
2017-12-08T03:25:58.947Z,100402.69
2017-12-08T03:28:29.212Z,100405.23
2017-12-08T03:30:59.373Z,100404.03
2017-12-08T03:33:29.749Z,100390.31
2017-12-08T03:36:00.353Z,100400.23
2017-12-08T03:38:30.801Z,100395.83
2017-12-08T03:41:01.929Z,100391.65
2017-12-08T03:43:32.172Z,100399.91
2017-12-08T03:46:02.864Z,100397.53
2017-12-08T03:48:33.109Z,100388.16
2017-12-08T03:51:03.485Z,100389.73
2017-12-08T03:53:33.654Z,100392.55
2017-12-08T03:56:05.660Z,100394.72
2017-12-08T03:58:36.047Z,100399.00
2017-12-08T04:01:06.799Z,100395.83
2017-12-08T04:03:37.972Z,100402.39
2017-12-08T04:06:08.343Z,100406.80
2017-12-08T04:08:38.550Z,100410.23
2017-12-08T04:11:09.188Z,100407.00
2017-12-08T04:13:39.510Z,100409.39
2017-12-08T04:16:10.349Z,100412.23
2017-12-08T04:18:41.589Z,100412.34
2017-12-08T04:21:12.727Z,100414.41
2017-12-08T04:23:43.778Z,100414.69
2017-12-08T04:26:14.098Z,100417.33
2017-12-08T04:28:44.990Z,100412.04
2017-12-08T04:31:16.302Z,100415.61
2017-12-08T04:33:47.599Z,100413.30
2017-12-08T04:36:19.839Z,100420.81
2017-12-08T04:38:50.180Z,100417.36
2017-12-08T04:41:20.503Z,100414.88
2017-12-08T04:43:50.786Z,100418.47
2017-12-08T04:46:22.779Z,100412.23
2017-12-08T04:48:54.856Z,100408.25
2017-12-08T04:51:25.518Z,100405.14
2017-12-08T04:53:56.813Z,100410.23
2017-12-08T04:56:27.083Z,100414.81
2017-12-08T04:58:57.296Z,100407.66
2017-12-08T05:01:27.845Z,100411.42
2017-12-08T05:03:58.039Z,100420.52
2017-12-08T05:06:28.846Z,100421.01
2017-12-08T05:08:59.095Z,100417.94
2017-12-08T05:11:30.032Z,100425.33
2017-12-08T05:14:00.384Z,100419.77
2017-12-08T05:16:32.277Z,100416.97
2017-12-08T05:19:02.714Z,100424.23
2017-12-08T05:21:36.744Z,100420.86
2017-12-08T05:24:07.069Z,100422.08
2017-12-08T05:26:37.622Z,100421.17
2017-12-08T05:29:08.660Z,100421.08
2017-12-08T05:31:39.758Z,100419.89
2017-12-08T05:34:11.307Z,100423.94
2017-12-08T05:36:43.350Z,100419.92
2017-12-08T05:39:14.195Z,100410.58
2017-12-08T05:41:45.184Z,100415.56
2017-12-08T05:44:16.124Z,100411.58
2017-12-08T05:46:48.114Z,100395.53
2017-12-08T05:49:20.476Z,100403.55
2017-12-08T05:51:51.535Z,100406.14
2017-12-08T05:54:21.810Z,100407.70
2017-12-08T05:56:55.114Z,100409.72
2017-12-08T05:59:25.632Z,100411.73
2017-12-08T06:01:57.119Z,100407.14
2017-12-08T06:04:27.474Z,100394.59
2017-12-08T06:06:57.722Z,100407.28
2017-12-08T06:09:28.185Z,100405.66
2017-12-08T06:11:58.756Z,100410.63
2017-12-08T06:14:29.991Z,100401.66
2017-12-08T06:17:01.373Z,100401.27
2017-12-08T06:19:31.918Z,100407.03
2017-12-08T06:22:02.117Z,100397.91
2017-12-08T06:24:36.916Z,100395.81
2017-12-08T06:27:10.421Z,100390.72
2017-12-08T06:29:43.829Z,100407.68
2017-12-08T06:32:22.977Z,100400.13
2017-12-08T06:34:53.780Z,100411.55
2017-12-08T06:37:24.514Z,100412.67
2017-12-08T06:39:55.409Z,100405.78
2017-12-08T06:42:26.257Z,100398.55
2017-12-08T06:44:56.480Z,100401.28
2017-12-08T06:47:28.245Z,100409.70
2017-12-08T06:49:58.731Z,100405.05
2017-12-08T06:52:29.795Z,100417.63
2017-12-08T06:55:02.248Z,100418.73
2017-12-08T06:57:49.465Z,100424.94
2017-12-08T07:00:21.729Z,100428.64
2017-12-08T07:03:02.321Z,100428.42
2017-12-08T07:05:33.110Z,100430.27
2017-12-08T07:08:03.802Z,100426.52
2017-12-08T07:10:34.912Z,100438.69
2017-12-08T07:13:05.916Z,100444.22
2017-12-08T07:15:36.414Z,100443.02
2017-12-08T07:18:07.722Z,100445.34
2017-12-08T07:20:38.304Z,100445.91
2017-12-08T07:23:08.518Z,100456.87
2017-12-08T07:25:39.194Z,100450.76
2017-12-08T07:28:09.849Z,100449.81
2017-12-08T07:30:40.527Z,100448.54
2017-12-08T07:33:11.547Z,100449.79
2017-12-08T07:35:41.997Z,100439.11
2017-12-08T07:38:12.450Z,100451.16
2017-12-08T07:40:43.882Z,100462.64
2017-12-08T07:43:15.987Z,100462.61
2017-12-08T07:45:47.517Z,100462.20
2017-12-08T07:48:18.376Z,100456.38
2017-12-08T07:50:55.519Z,100444.78
2017-12-08T07:53:27.676Z,100441.35
2017-12-08T07:55:59.135Z,100442.92
2017-12-08T07:58:30.638Z,100435.34
2017-12-08T08:01:02.209Z,100439.06
2017-12-08T08:03:32.863Z,100434.95
2017-12-08T08:06:03.714Z,100453.05
2017-12-08T08:08:33.993Z,100439.28
2017-12-08T08:11:06.917Z,100445.12
2017-12-08T08:13:37.636Z,100451.17
2017-12-08T08:16:11.928Z,100454.33
2017-12-08T08:18:45.754Z,100445.70
2017-12-08T08:21:17.185Z,100448.62
2017-12-08T08:23:48.465Z,100434.05
2017-12-08T08:26:18.770Z,100448.14
2017-12-08T08:28:52.349Z,100458.05
2017-12-08T08:31:24.334Z,100437.64
2017-12-08T08:33:56.125Z,100462.73
2017-12-08T08:36:26.737Z,100453.23
2017-12-08T08:38:58.269Z,100461.81
2017-12-08T08:41:29.124Z,100453.77
2017-12-08T08:44:00.583Z,100454.56
2017-12-08T08:46:30.880Z,100459.36
2017-12-08T08:49:02.329Z,100456.84
2017-12-08T08:51:33.563Z,100463.37
2017-12-08T08:54:04.082Z,100457.55
2017-12-08T08:56:36.575Z,100445.64
2017-12-08T08:59:06.983Z,100449.73
2017-12-08T09:01:56.011Z,100436.52
2017-12-08T09:04:31.602Z,100439.84
2017-12-08T09:07:02.498Z,100432.39
2017-12-08T09:09:33.614Z,100435.08
2017-12-08T09:12:06.885Z,100436.41
2017-12-08T09:14:38.673Z,100442.64
2017-12-08T09:17:09.218Z,100439.20
2017-12-08T09:19:55.405Z,100448.84
2017-12-08T09:22:26.062Z,100440.70
2017-12-08T09:24:57.197Z,100438.18
2017-12-08T09:27:27.560Z,100435.98
2017-12-08T09:29:57.898Z,100440.61
2017-12-08T09:32:28.920Z,100434.24
2017-12-08T09:37:32.175Z,100447.55
2017-12-08T09:40:02.596Z,100452.38
2017-12-08T09:42:34.230Z,100418.61
2017-12-08T09:45:07.505Z,100448.84
2017-12-08T09:47:38.663Z,100449.64
2017-12-08T09:50:09.933Z,100451.86
2017-12-08T09:52:40.626Z,100461.61
2017-12-08T09:55:11.073Z,100452.53
2017-12-08T09:57:42.714Z,100453.73
2017-12-08T10:00:16.066Z,100459.53
2017-12-08T10:02:47.831Z,100465.65
2017-12-08T10:05:19.975Z,100470.33
2017-12-08T10:07:50.512Z,100458.97
2017-12-08T10:10:22.011Z,100452.28
2017-12-08T10:12:53.110Z,100447.81
2017-12-08T10:15:25.098Z,100449.48
2017-12-08T10:17:56.623Z,100456.78
2017-12-08T10:20:27.092Z,100461.20
2017-12-08T10:22:57.595Z,100456.12
2017-12-08T10:25:27.950Z,100453.33
2017-12-08T10:27:58.281Z,100441.55
2017-12-08T10:30:33.363Z,100442.48
2017-12-08T10:33:08.836Z,100435.95
2017-12-08T10:35:44.693Z,100442.58
2017-12-08T10:38:24.102Z,100442.65
2017-12-08T10:41:04.803Z,100439.20
2017-12-08T10:43:37.825Z,100426.44
2017-12-08T10:46:08.239Z,100423.57
2017-12-08T10:48:38.578Z,100427.06
2017-12-08T10:51:09.453Z,100422.88
2017-12-08T10:53:39.822Z,100429.84
2017-12-08T10:56:10.432Z,100423.23
2017-12-08T10:58:41.147Z,100423.76
2017-12-08T11:01:11.719Z,100416.25
2017-12-08T11:03:42.978Z,100399.56
2017-12-08T11:06:15.552Z,100406.21
2017-12-08T11:08:47.696Z,100402.09
2017-12-08T11:11:24.081Z,100405.41
2017-12-08T11:13:58.817Z,100412.70
2017-12-08T11:16:31.860Z,100425.67
2017-12-08T11:19:04.488Z,100422.19
2017-12-08T11:21:36.817Z,100418.22
2017-12-08T11:24:09.049Z,100416.21
2017-12-08T11:26:39.480Z,100409.31
2017-12-08T11:29:12.038Z,100411.97
2017-12-08T11:31:43.203Z,100421.81
2017-12-08T11:37:00.501Z,100409.38
2017-12-08T11:39:32.547Z,100408.98
2017-12-08T11:42:06.956Z,100402.38
2017-12-08T11:44:56.648Z,100419.86
2017-12-08T11:47:34.255Z,100405.59
2017-12-08T11:50:06.966Z,100394.77
2017-12-08T11:52:41.097Z,100406.97
2017-12-08T11:55:14.402Z,100406.71
2017-12-08T11:57:45.674Z,100413.67
2017-12-08T12:00:25.660Z,100403.82
2017-12-08T12:02:58.933Z,100412.06
2017-12-08T12:05:37.164Z,100403.22
2017-12-08T12:08:13.991Z,100405.58
2017-12-08T12:10:48.273Z,100409.09
2017-12-08T12:13:19.443Z,100414.12
2017-12-08T12:15:51.057Z,100403.69
2017-12-08T12:18:23.955Z,100417.45
2017-12-08T12:20:55.063Z,100413.20
2017-12-08T12:23:25.520Z,100414.52
2017-12-08T12:26:06.912Z,100431.99
2017-12-08T12:28:45.440Z,100428.11
2017-12-08T12:31:19.510Z,100427.41
2017-12-08T12:33:52.315Z,100430.59
2017-12-08T12:36:23.274Z,100429.37
2017-12-08T12:38:53.984Z,100442.02
2017-12-08T12:41:26.439Z,100446.28
2017-12-08T12:43:56.957Z,100463.02
2017-12-08T12:46:27.935Z,100443.92
2017-12-08T12:48:59.652Z,100465.77
2017-12-08T12:51:30.498Z,100476.61
2017-12-08T12:54:05.449Z,100481.67
2017-12-08T12:56:38.106Z,100491.80
2017-12-08T12:59:08.932Z,100489.86
2017-12-08T13:01:39.566Z,100500.69
2017-12-08T13:04:10.089Z,100499.64
2017-12-08T13:06:41.199Z,100497.36
2017-12-08T13:09:12.278Z,100504.77
2017-12-08T13:11:46.607Z,100500.93
2017-12-08T13:14:17.569Z,100513.53
2017-12-08T13:16:59.224Z,100511.89
2017-12-08T13:19:29.970Z,100511.45
2017-12-08T13:22:00.697Z,100527.41
2017-12-08T13:24:33.955Z,100525.45
2017-12-08T13:27:05.578Z,100521.46
2017-12-08T13:29:36.865Z,100520.91
2017-12-08T13:35:00.018Z,100519.81
2017-12-08T13:37:31.521Z,100517.66
2017-12-08T13:40:02.711Z,100519.25
2017-12-08T13:42:33.885Z,100511.25
2017-12-08T13:45:06.626Z,100534.16
2017-12-08T13:47:37.496Z,100537.06
2017-12-08T13:50:07.887Z,100536.61
2017-12-08T13:52:38.370Z,100534.33
2017-12-08T13:57:23.264Z,100517.41
2017-12-08T13:59:53.586Z,100521.89
2017-12-08T14:02:24.410Z,100533.69
2017-12-08T14:04:54.849Z,100537.58
2017-12-08T14:07:25.380Z,100536.40
2017-12-08T14:09:57.458Z,100538.75
2017-12-08T14:12:28.295Z,100532.69
2017-12-08T14:14:58.855Z,100547.70
2017-12-08T14:17:39.857Z,100529.31
2017-12-08T14:20:18.247Z,100541.08
2017-12-08T14:22:53.799Z,100536.38
2017-12-08T14:25:27.239Z,100534.70
2017-12-08T14:27:58.717Z,100532.98
2017-12-08T14:30:29.749Z,100529.30
2017-12-08T14:33:02.143Z,100528.19
2017-12-08T14:35:34.041Z,100535.87
2017-12-08T14:38:06.020Z,100512.91
2017-12-08T14:40:36.558Z,100519.92
2017-12-08T14:43:09.192Z,100526.88
2017-12-08T14:45:45.364Z,100530.70
2017-12-08T14:48:22.611Z,100523.08
2017-12-08T14:50:55.811Z,100529.19
2017-12-08T14:53:27.883Z,100535.43
2017-12-08T14:55:59.221Z,100544.75
2017-12-08T14:58:29.842Z,100532.48
2017-12-08T15:01:03.687Z,100545.13
2017-12-08T15:03:35.621Z,100542.06
2017-12-08T15:06:06.511Z,100540.66
2017-12-08T15:08:38.077Z,100537.77
2017-12-08T15:11:10.616Z,100544.73
2017-12-08T15:13:43.019Z,100547.67
2017-12-08T15:16:19.028Z,100593.48
2017-12-08T15:18:51.091Z,100586.63
2017-12-08T15:21:26.791Z,100585.28
2017-12-08T15:23:58.691Z,100593.70
2017-12-08T15:26:34.057Z,100586.88
2017-12-08T15:29:07.685Z,100577.34
2017-12-08T15:31:38.615Z,100572.25
2017-12-08T15:34:09.534Z,100609.13
2017-12-08T15:36:41.268Z,100603.65
2017-12-08T15:39:15.768Z,100605.02
2017-12-08T15:41:46.468Z,100607.70
2017-12-08T15:44:17.882Z,100607.57
2017-12-08T15:46:50.125Z,100617.56
2017-12-08T15:49:25.313Z,100630.00
2017-12-08T15:51:55.913Z,100627.89
2017-12-08T15:54:29.456Z,100635.83
2017-12-08T15:57:01.620Z,100635.44
2017-12-08T15:59:33.135Z,100643.23
2017-12-08T16:02:03.784Z,100669.88
2017-12-08T16:04:37.684Z,100656.00
2017-12-08T16:07:16.139Z,100651.59
2017-12-08T16:12:23.272Z,100629.89
2017-12-08T16:14:54.562Z,100618.03
2017-12-08T16:17:26.304Z,100622.32
2017-12-08T16:19:58.082Z,100632.02
2017-12-08T16:22:29.212Z,100637.48
2017-12-08T16:24:59.731Z,100634.77
2017-12-08T16:27:33.760Z,100638.00
2017-12-08T16:30:07.873Z,100641.84
2017-12-08T16:32:39.144Z,100639.10
2017-12-08T16:35:11.706Z,100630.94
2017-12-08T16:37:44.019Z,100633.19
2017-12-08T16:40:19.120Z,100634.27
2017-12-08T16:42:52.174Z,100634.44
2017-12-08T16:45:23.672Z,100630.73
2017-12-08T16:47:54.796Z,100638.97
2017-12-08T16:50:27.582Z,100635.06
2017-12-08T16:53:01.289Z,100636.94
2017-12-08T16:55:41.543Z,100633.75
2017-12-08T16:58:15.050Z,100632.69
2017-12-08T17:00:48.221Z,100631.96
2017-12-08T17:03:21.740Z,100615.61
2017-12-08T17:05:52.759Z,100625.16
2017-12-08T17:08:24.030Z,100636.09
2017-12-08T17:10:59.824Z,100641.02
2017-12-08T17:13:34.249Z,100640.13
2017-12-08T17:16:09.356Z,100640.47
2017-12-08T17:18:46.768Z,100649.08
2017-12-08T17:21:23.692Z,100646.03
2017-12-08T17:23:57.312Z,100641.52
2017-12-08T17:26:29.738Z,100642.92
2017-12-08T17:29:08.682Z,100642.21
2017-12-08T17:31:40.278Z,100649.05
2017-12-08T17:34:12.448Z,100640.72
2017-12-08T17:36:43.691Z,100648.20
2017-12-08T17:51:04.342Z,100657.89
2017-12-08T17:53:35.336Z,100650.28
2017-12-08T17:56:06.179Z,100645.13
2017-12-08T17:58:39.831Z,100638.43
2017-12-08T18:01:12.308Z,100647.98
2017-12-08T18:03:45.550Z,100503.72
2017-12-08T18:06:25.966Z,100647.52
2017-12-08T18:08:56.814Z,100652.27
2017-12-08T18:11:30.898Z,100649.26
2017-12-08T18:14:05.698Z,100646.36
2017-12-08T18:16:40.912Z,100641.87
2017-12-08T18:19:28.168Z,100647.40
2017-12-08T18:22:00.016Z,100636.39
2017-12-08T18:24:46.517Z,100638.05
2017-12-08T18:27:18.888Z,100640.43
2017-12-08T18:29:52.910Z,100637.45
2017-12-08T18:32:25.413Z,100634.98
2017-12-08T18:35:00.047Z,100630.23
2017-12-08T18:37:33.525Z,100631.58
2017-12-08T18:40:04.496Z,100632.22
2017-12-08T18:42:36.863Z,100635.88
2017-12-08T18:45:08.226Z,100592.92
2017-12-08T18:47:38.915Z,100631.61
2017-12-08T18:50:12.187Z,100636.25
2017-12-08T18:52:45.202Z,100628.98
2017-12-08T18:55:17.814Z,100630.28
2017-12-08T18:57:53.446Z,100608.25
2017-12-08T19:00:27.315Z,100620.78
2017-12-08T19:02:58.533Z,100641.00
2017-12-08T19:05:35.673Z,100644.41
2017-12-08T19:08:07.878Z,100645.70
2017-12-08T19:10:39.999Z,100647.89
2017-12-08T19:13:11.170Z,100647.14
2017-12-08T19:15:42.327Z,100638.45
2017-12-08T19:18:13.822Z,100646.27
2017-12-08T19:20:46.516Z,100644.61
2017-12-08T19:23:17.732Z,100633.17
2017-12-08T19:25:48.797Z,100641.82
2017-12-08T19:28:21.010Z,100628.89
2017-12-08T19:30:52.923Z,100632.22
2017-12-08T19:33:24.897Z,100629.77
2017-12-08T19:35:58.315Z,100624.88
2017-12-08T19:38:37.981Z,100632.36
2017-12-08T19:41:16.285Z,100628.69
2017-12-08T19:43:52.555Z,100634.16
2017-12-08T19:46:24.528Z,100636.17
2017-12-08T19:48:57.244Z,100632.22
2017-12-08T19:51:31.875Z,100640.25
2017-12-08T19:54:03.812Z,100641.77
2017-12-08T19:56:35.383Z,100641.47
2017-12-08T19:59:06.187Z,100635.66
2017-12-08T20:01:39.704Z,100649.03
2017-12-08T20:04:11.916Z,100646.61
2017-12-08T20:06:44.115Z,100650.72
2017-12-08T20:09:19.432Z,100651.64
2017-12-08T20:14:42.410Z,100665.73
2017-12-08T20:17:15.774Z,100679.14
2017-12-08T20:19:48.321Z,100684.23
2017-12-08T20:22:19.588Z,100685.80
2017-12-08T20:24:50.384Z,100667.09
2017-12-08T20:27:21.066Z,100671.98
2017-12-08T20:29:51.845Z,100663.36
2017-12-08T20:32:22.615Z,100672.91
2017-12-08T20:34:54.164Z,100667.97
2017-12-08T20:37:26.173Z,100671.92
2017-12-08T20:39:57.833Z,100677.77
2017-12-08T20:42:30.074Z,100679.62
2017-12-08T20:45:02.829Z,100670.73
2017-12-08T20:47:52.331Z,100682.56
2017-12-08T20:50:28.977Z,100674.91
2017-12-08T20:53:00.116Z,100675.98
2017-12-08T20:55:36.669Z,100672.08
2017-12-08T20:58:21.239Z,100689.17
2017-12-08T21:00:55.292Z,100682.28
2017-12-08T21:03:28.073Z,100680.41
2017-12-08T21:06:00.111Z,100683.23
2017-12-08T21:08:35.079Z,100688.61
2017-12-08T21:11:12.017Z,100695.84
2017-12-08T21:13:47.879Z,100688.94
2017-12-08T21:16:42.044Z,100686.98
2017-12-08T21:19:20.606Z,100703.63
2017-12-08T21:21:54.078Z,100700.46
2017-12-08T21:24:36.153Z,100694.69
2017-12-08T21:27:15.886Z,100692.55
2017-12-08T21:29:48.786Z,100698.66
2017-12-08T21:35:24.012Z,100709.64
2017-12-08T21:49:51.398Z,100709.31
2017-12-08T21:52:26.777Z,100714.70
2017-12-08T21:55:00.580Z,100726.85
2017-12-08T21:57:42.876Z,100721.30
2017-12-08T22:00:21.870Z,100707.58
2017-12-08T22:02:55.094Z,100723.11
2017-12-08T22:05:26.561Z,100718.41
2017-12-08T22:08:08.656Z,100733.25
2017-12-08T22:10:41.635Z,100737.80
2017-12-08T22:13:19.981Z,100739.91
2017-12-08T22:15:56.851Z,100745.62
2017-12-08T22:18:28.256Z,100748.39
2017-12-08T22:21:00.570Z,100748.61
2017-12-08T22:23:33.247Z,100751.46
2017-12-08T22:26:08.034Z,100760.41
2017-12-08T22:28:39.822Z,100766.83
2017-12-08T22:31:13.368Z,100767.03
2017-12-08T22:33:47.652Z,100760.69
2017-12-08T22:36:20.981Z,100769.34
2017-12-08T22:38:52.491Z,100762.29
2017-12-08T22:41:25.764Z,100762.73
2017-12-08T22:43:59.653Z,100758.51
2017-12-08T22:46:30.569Z,100750.66
2017-12-08T22:49:02.261Z,100758.40
2017-12-08T22:51:33.097Z,100765.52
2017-12-08T22:54:05.247Z,100756.70
2017-12-08T23:09:41.315Z,100751.70
2017-12-08T23:12:15.495Z,100761.50
2017-12-08T23:14:51.298Z,100755.23
2017-12-08T23:17:23.103Z,100754.11
2017-12-08T23:19:54.440Z,100750.67
2017-12-08T23:22:26.237Z,100741.27
2017-12-08T23:24:59.331Z,100747.89
2017-12-08T23:27:31.224Z,100750.05
2017-12-08T23:30:04.583Z,100747.84
2017-12-08T23:33:05.030Z,100736.28
2017-12-08T23:35:41.071Z,100737.05
2017-12-08T23:38:12.721Z,100738.98
2017-12-08T23:40:45.880Z,100743.77
2017-12-08T23:43:19.916Z,100745.29
2017-12-08T23:45:52.784Z,100750.58
2017-12-08T23:48:23.754Z,100744.52
2017-12-08T23:50:55.934Z,100748.09
2017-12-08T23:53:27.335Z,100741.92
2017-12-08T23:55:58.363Z,100740.38
2017-12-08T23:58:29.941Z,100751.75
